Time;durP1;ratioP1;P1;durP2;ratioP2;P2;SDS_P1;SDS_P2;PMS_P1;PMS_P2;Temp;Humidity;BMP_temperature;BMP_pressure;BME280_temperature;BME280_humidity;BME280_pressure;Samples;Min_cycle;Max_cycle;Signal;HPM_P1;HPM_P2
2021/01/24 00:01:19;;;;;;;19.03;9.30;;;1.50;99.90;;;;;;5095280;28;20504;-72
2021/01/24 00:03:47;;;;;;;15.80;10.53;;;1.50;99.90;;;;;;5096145;28;20429;-72
2021/01/24 00:06:15;;;;;;;15.80;10.13;;;1.50;99.90;;;;;;5094842;28;20444;-71
2021/01/24 00:08:44;;;;;;;20.37;10.30;;;1.50;99.90;;;;;;5095021;28;20465;-72
2021/01/24 00:11:12;;;;;;;17.00;10.33;;;1.50;99.90;;;;;;5101683;28;20463;-72
2021/01/24 00:13:39;;;;;;;18.20;9.83;;;1.60;99.90;;;;;;5115970;28;20989;-71
2021/01/24 00:16:06;;;;;;;14.57;9.93;;;1.60;99.90;;;;;;5105190;28;20787;-73
2021/01/24 00:18:34;;;;;;;14.73;9.30;;;1.60;99.90;;;;;;5137129;28;20427;-72
2021/01/24 00:21:01;;;;;;;12.87;9.83;;;1.60;99.90;;;;;;5136826;28;20498;-72
2021/01/24 00:23:28;;;;;;;15.93;9.63;;;1.60;99.90;;;;;;5122416;28;20427;-74
2021/01/24 00:25:56;;;;;;;16.10;9.23;;;1.60;99.90;;;;;;5142668;28;20453;-71
2021/01/24 00:28:26;;;;;;;14.23;9.67;;;1.60;99.90;;;;;;5139414;28;20460;-72
2021/01/24 00:30:53;;;;;;;12.27;7.30;;;1.60;99.90;;;;;;5130449;28;20483;-73
2021/01/24 00:33:21;;;;;;;12.47;8.80;;;1.70;99.90;;;;;;5117793;28;20456;-71
2021/01/24 00:35:48;;;;;;;15.90;9.93;;;1.60;99.90;;;;;;5119585;28;20794;-72
2021/01/24 00:38:15;;;;;;;15.07;9.20;;;1.60;99.90;;;;;;5116103;28;20481;-72
2021/01/24 00:40:43;;;;;;;14.87;8.87;;;1.60;99.90;;;;;;5115779;28;20467;-72
2021/01/24 00:43:11;;;;;;;13.70;9.50;;;1.50;99.90;;;;;;5115754;28;20482;-70
2021/01/24 00:45:38;;;;;;;13.23;9.60;;;1.50;99.90;;;;;;5112813;28;20439;-70
2021/01/24 00:48:06;;;;;;;11.20;8.33;;;1.50;99.90;;;;;;5117084;28;21024;-70
2021/01/24 00:50:33;;;;;;;16.23;10.53;;;1.50;99.90;;;;;;5097712;28;20510;-70
2021/01/24 00:53:01;;;;;;;15.50;10.00;;;1.50;99.90;;;;;;5117356;28;20600;-74
2021/01/24 00:55:29;;;;;;;13.80;8.10;;;1.50;99.90;;;;;;5101504;28;20435;-74
2021/01/24 00:57:56;;;;;;;14.13;9.93;;;1.50;99.90;;;;;;5127594;28;20498;-71
2021/01/24 01:00:25;;;;;;;13.63;8.57;;;1.60;99.90;;;;;;5127545;28;20431;-73
2021/01/24 01:02:56;;;;;;;14.83;9.97;;;1.60;99.90;;;;;;5103801;28;21016;-71
2021/01/24 01:05:24;;;;;;;14.20;8.00;;;1.60;99.90;;;;;;5119430;28;20523;-71
2021/01/24 01:07:52;;;;;;;13.03;8.90;;;1.60;99.90;;;;;;5118954;28;20450;-74
2021/01/24 01:10:20;;;;;;;12.17;9.50;;;1.60;99.90;;;;;;5118653;28;20432;-72
2021/01/24 01:12:48;;;;;;;13.13;9.13;;;1.60;99.90;;;;;;5127330;28;21004;-73
2021/01/24 01:15:15;;;;;;;12.90;7.00;;;1.70;99.90;;;;;;5123050;28;20463;-70
2021/01/24 01:17:43;;;;;;;13.17;8.87;;;1.70;99.90;;;;;;5117460;28;20827;-71
2021/01/24 01:20:12;;;;;;;13.10;9.50;;;1.60;99.90;;;;;;5119094;28;20427;-71
2021/01/24 01:22:39;;;;;;;12.03;8.37;;;1.70;99.90;;;;;;5119967;28;20448;-72
2021/01/24 01:25:07;;;;;;;16.63;9.83;;;1.80;99.90;;;;;;5119999;27;20518;-72
2021/01/24 01:27:35;;;;;;;16.80;9.73;;;1.90;99.90;;;;;;5144954;27;20430;-71
2021/01/24 01:30:03;;;;;;;12.73;9.20;;;1.90;99.90;;;;;;5133823;28;20537;-71
2021/01/24 01:32:31;;;;;;;10.20;7.90;;;1.80;99.90;;;;;;5136666;28;20447;-72
2021/01/24 01:35:00;;;;;;;12.07;8.97;;;1.80;99.90;;;;;;5128814;28;20451;-74
2021/01/24 01:37:27;;;;;;;12.17;8.73;;;1.80;99.90;;;;;;5123389;28;20467;-71
2021/01/24 01:39:55;;;;;;;12.57;9.47;;;1.70;99.90;;;;;;5123145;28;20473;-71
2021/01/24 01:42:22;;;;;;;13.43;9.10;;;1.90;99.90;;;;;;5126847;28;20431;-71
2021/01/24 01:44:50;;;;;;;13.87;8.50;;;1.90;99.90;;;;;;5127809;28;20438;-74
2021/01/24 01:47:22;;;;;;;15.03;10.03;;;1.90;99.90;;;;;;5101541;28;20471;-72
2021/01/24 01:49:50;;;;;;;13.10;9.10;;;1.80;99.90;;;;;;5117830;28;20432;-71
2021/01/24 01:52:18;;;;;;;12.50;7.87;;;1.70;99.90;;;;;;5117725;28;20930;-71
2021/01/24 01:54:49;;;;;;;13.47;9.77;;;1.60;99.90;;;;;;5117429;28;20814;-70
2021/01/24 01:57:17;;;;;;;15.63;10.40;;;1.40;99.90;;;;;;5117219;28;20423;-70
2021/01/24 01:59:45;;;;;;;14.80;10.47;;;1.40;99.90;;;;;;5117331;28;20428;-70
2021/01/24 02:02:23;;;;;;;15.43;9.93;;;1.30;99.90;;;;;;5098327;28;20551;-70
2021/01/24 02:05:04;;;;;;;15.20;9.67;;;1.30;99.90;;;;;;5116949;28;20443;-71
2021/01/24 02:07:40;;;;;;;13.87;9.33;;;1.40;99.90;;;;;;5116868;28;20436;-70
2021/01/24 02:10:14;;;;;;;14.73;9.97;;;1.20;99.90;;;;;;5117230;28;20454;-70
2021/01/24 02:12:56;;;;;;;15.00;10.00;;;1.40;99.90;;;;;;5116446;28;20467;-71
2021/01/24 02:15:26;;;;;;;18.90;11.70;;;1.30;99.90;;;;;;5097512;28;20471;-71
2021/01/24 02:18:00;;;;;;;17.17;11.57;;;1.30;99.90;;;;;;5116518;28;20464;-71
2021/01/24 02:20:37;;;;;;;17.60;10.77;;;1.30;99.90;;;;;;5116806;28;20800;-74
2021/01/24 02:26:09;;;;;;;19.10;10.93;;;1.20;99.90;;;;;;5115461;28;20451;-70
2021/01/24 02:28:56;;;;;;;18.60;11.10;;;1.10;99.90;;;;;;5116894;28;20428;-71
2021/01/24 02:31:26;;;;;;;18.03;11.17;;;1.00;99.90;;;;;;5100823;27;20819;-70
2021/01/24 02:33:56;;;;;;;21.33;13.07;;;1.10;99.90;;;;;;5137311;27;20979;-70
2021/01/24 02:36:26;;;;;;;20.43;12.70;;;1.10;99.90;;;;;;5137101;27;20937;-70
2021/01/24 02:38:55;;;;;;;17.00;11.07;;;1.20;99.90;;;;;;5136957;27;20435;-71
2021/01/24 02:41:24;;;;;;;18.97;11.97;;;1.20;99.90;;;;;;5136845;27;20940;-70
2021/01/24 02:43:52;;;;;;;14.97;11.30;;;1.20;99.90;;;;;;5136497;27;20527;-71
2021/01/24 02:46:20;;;;;;;18.07;13.03;;;1.30;99.90;;;;;;5125276;27;20467;-70
2021/01/24 02:48:50;;;;;;;17.17;11.50;;;1.30;99.90;;;;;;5115286;28;20428;-74
2021/01/24 02:51:43;;;;;;;20.80;12.43;;;1.20;99.90;;;;;;5116038;28;20435;-71
2021/01/24 02:54:12;;;;;;;21.63;14.07;;;1.20;99.90;;;;;;5097863;28;20471;-70
2021/01/24 02:56:40;;;;;;;17.70;12.73;;;1.20;99.90;;;;;;5114880;28;20475;-70
2021/01/24 02:59:08;;;;;;;21.60;12.90;;;1.20;99.90;;;;;;5115682;28;20455;-71
2021/01/24 03:01:36;;;;;;;17.67;13.30;;;1.10;99.90;;;;;;5104174;28;21051;-70
2021/01/24 03:04:05;;;;;;;18.13;13.57;;;1.20;99.90;;;;;;5115872;28;20420;-71
2021/01/24 03:06:35;;;;;;;20.97;13.93;;;1.10;99.90;;;;;;5097074;28;20992;-71
2021/01/24 03:09:05;;;;;;;23.60;14.93;;;1.30;99.90;;;;;;5115876;28;20431;-71
2021/01/24 03:11:33;;;;;;;19.57;13.30;;;1.30;99.90;;;;;;5093455;28;20542;-71
2021/01/24 03:14:09;;;;;;;19.20;12.03;;;1.50;99.90;;;;;;5094351;28;20460;-71
2021/01/24 03:16:38;;;;;;;24.83;13.60;;;1.40;99.90;;;;;;5106612;28;20571;-71
2021/01/24 03:19:10;;;;;;;21.47;12.43;;;1.30;99.90;;;;;;5115226;28;20576;-71
2021/01/24 03:21:39;;;;;;;21.07;13.60;;;1.30;99.90;;;;;;5115268;28;20891;-71
2021/01/24 03:24:13;;;;;;;18.07;12.10;;;1.30;99.90;;;;;;5097190;28;20435;-70
2021/01/24 03:26:41;;;;;;;18.83;11.43;;;1.40;99.90;;;;;;5115330;28;20449;-73
2021/01/24 03:29:09;;;;;;;17.93;12.77;;;1.40;99.90;;;;;;5115509;28;20809;-71
2021/01/24 03:31:39;;;;;;;19.43;11.93;;;1.40;99.90;;;;;;5099674;28;20551;-72
2021/01/24 03:34:17;;;;;;;16.17;12.90;;;1.40;99.90;;;;;;5095002;28;20464;-71
2021/01/24 03:36:46;;;;;;;18.90;12.80;;;1.30;99.90;;;;;;5094257;28;20436;-70
2021/01/24 03:39:13;;;;;;;21.67;12.80;;;1.30;99.90;;;;;;5091890;28;20562;-71
2021/01/24 03:41:41;;;;;;;19.63;13.63;;;1.20;99.90;;;;;;5110848;28;20527;-72
2021/01/24 03:44:09;;;;;;;20.30;12.57;;;1.20;99.90;;;;;;5095472;28;20444;-73
2021/01/24 03:46:36;;;;;;;20.17;13.33;;;1.20;99.90;;;;;;5092347;28;20469;-71
2021/01/24 03:49:04;;;;;;;22.63;14.47;;;1.40;99.90;;;;;;5093605;28;20432;-70
2021/01/24 03:51:44;;;;;;;21.00;13.83;;;1.40;99.90;;;;;;5093981;28;20610;-70
2021/01/24 03:54:11;;;;;;;21.00;13.20;;;1.40;99.90;;;;;;5095863;28;20468;-74
2021/01/24 03:56:39;;;;;;;17.83;12.20;;;1.30;99.90;;;;;;5110020;28;20527;-73
2021/01/24 03:59:06;;;;;;;15.80;12.70;;;1.30;99.90;;;;;;5094475;28;20950;-70
2021/01/24 04:01:34;;;;;;;18.03;13.00;;;1.20;99.90;;;;;;5105892;28;20471;-70
2021/01/24 04:04:02;;;;;;;18.20;14.07;;;1.20;99.90;;;;;;5115242;28;20439;-72
2021/01/24 04:06:34;;;;;;;21.93;13.43;;;1.20;99.90;;;;;;5115255;28;21022;-70
2021/01/24 04:09:04;;;;;;;20.60;13.00;;;1.10;99.90;;;;;;5114741;28;20471;-74
2021/01/24 04:11:31;;;;;;;20.07;14.53;;;1.20;99.90;;;;;;5113115;28;20994;-71
2021/01/24 04:13:59;;;;;;;19.57;14.07;;;1.10;99.90;;;;;;5114571;28;20487;-72
2021/01/24 04:16:27;;;;;;;18.97;12.20;;;1.20;99.90;;;;;;5113740;28;20466;-72
2021/01/24 04:18:54;;;;;;;22.40;13.43;;;1.10;99.90;;;;;;5114811;28;20411;-71
2021/01/24 04:21:22;;;;;;;22.23;14.47;;;1.20;99.90;;;;;;5114290;28;20425;-72
2021/01/24 04:23:49;;;;;;;19.70;13.30;;;1.40;99.90;;;;;;5115254;28;20424;-73
2021/01/24 04:26:17;;;;;;;17.73;13.70;;;1.40;99.90;;;;;;5114317;28;20768;-72
2021/01/24 04:28:51;;;;;;;17.00;11.00;;;1.50;99.90;;;;;;5117121;28;20436;-71
2021/01/24 04:31:22;;;;;;;20.73;13.73;;;1.50;99.90;;;;;;5118437;28;20451;-71
2021/01/24 04:33:51;;;;;;;21.50;12.67;;;1.50;99.90;;;;;;5118416;28;20439;-71
2021/01/24 04:36:18;;;;;;;20.07;12.37;;;1.50;99.90;;;;;;5118800;28;20878;-69
2021/01/24 04:38:46;;;;;;;18.23;11.17;;;1.60;99.90;;;;;;5117128;28;20419;-71
2021/01/24 04:41:13;;;;;;;17.40;11.83;;;1.60;99.90;;;;;;5118755;28;20996;-71
2021/01/24 04:43:42;;;;;;;15.80;11.90;;;1.60;99.90;;;;;;5100512;28;20443;-71
2021/01/24 04:46:10;;;;;;;18.80;12.03;;;1.60;99.90;;;;;;5117407;27;21020;-70
2021/01/24 04:48:38;;;;;;;15.60;10.87;;;1.60;99.90;;;;;;5118266;28;20463;-71
2021/01/24 04:51:06;;;;;;;16.40;10.77;;;1.60;99.90;;;;;;5118471;28;20545;-71
2021/01/24 04:53:34;;;;;;;17.30;10.97;;;1.70;99.90;;;;;;5118821;28;20455;-70
2021/01/24 04:56:02;;;;;;;15.70;10.67;;;1.60;99.90;;;;;;5118619;28;20503;-71
2021/01/24 04:58:30;;;;;;;18.10;10.23;;;1.60;99.90;;;;;;5118406;28;20519;-71
2021/01/24 05:00:59;;;;;;;13.63;9.63;;;1.70;99.90;;;;;;5115740;28;20439;-70
2021/01/24 05:03:27;;;;;;;12.43;8.80;;;1.70;99.90;;;;;;5118301;28;20523;-70
2021/01/24 05:05:55;;;;;;;10.20;7.23;;;1.70;99.90;;;;;;5116904;28;20432;-71
2021/01/24 05:08:23;;;;;;;8.80;6.70;;;1.70;99.90;;;;;;5118297;28;20451;-70
2021/01/24 05:10:54;;;;;;;7.43;5.43;;;1.70;99.90;;;;;;5118110;28;20499;-68
2021/01/24 05:13:26;;;;;;;6.37;5.57;;;1.80;99.90;;;;;;5117790;28;20817;-70
2021/01/24 05:15:56;;;;;;;6.70;4.27;;;1.80;99.90;;;;;;5116125;28;20479;-69
2021/01/24 05:18:24;;;;;;;4.63;3.57;;;1.90;99.90;;;;;;5118068;28;20432;-70
2021/01/24 05:20:52;;;;;;;5.37;4.10;;;1.90;99.90;;;;;;5118024;28;20552;-69
2021/01/24 05:23:20;;;;;;;3.00;2.70;;;1.80;99.90;;;;;;5118105;28;20518;-70
2021/01/24 05:25:49;;;;;;;2.60;2.40;;;1.90;99.90;;;;;;5117855;28;20427;-70
2021/01/24 05:28:18;;;;;;;2.80;1.90;;;1.90;99.90;;;;;;5117291;28;20459;-70
2021/01/24 05:30:46;;;;;;;4.00;1.77;;;1.90;99.90;;;;;;5117025;28;20504;-70
2021/01/24 05:33:17;;;;;;;1.70;1.60;;;1.80;99.90;;;;;;5118132;28;20435;-70
2021/01/24 05:35:51;;;;;;;1.63;1.53;;;1.90;99.90;;;;;;5118414;28;20466;-69
2021/01/24 05:38:29;;;;;;;1.50;1.40;;;1.90;99.90;;;;;;5116426;28;20455;-69
2021/01/24 05:40:59;;;;;;;1.77;1.40;;;1.90;99.90;;;;;;5117058;28;20534;-72
2021/01/24 05:43:33;;;;;;;1.30;1.20;;;1.90;99.90;;;;;;5118134;28;20428;-70
2021/01/24 05:46:31;;;;;;;1.70;1.20;;;1.90;99.90;;;;;;5119795;28;20533;-70
2021/01/24 05:48:59;;;;;;;1.60;1.50;;;1.90;99.90;;;;;;5126733;28;20427;-69
2021/01/24 05:51:29;;;;;;;1.73;1.50;;;1.90;99.90;;;;;;5122270;28;20446;-69
2021/01/24 05:53:56;;;;;;;1.50;1.10;;;1.90;99.90;;;;;;5118835;28;20509;-71
2021/01/24 05:56:24;;;;;;;1.60;1.50;;;1.90;99.90;;;;;;5128599;28;20427;-70
2021/01/24 05:58:55;;;;;;;1.60;1.47;;;1.90;99.90;;;;;;5131098;28;20436;-70
2021/01/24 06:01:24;;;;;;;2.00;1.90;;;1.90;99.90;;;;;;5126633;27;20460;-70
2021/01/24 06:03:54;;;;;;;2.63;2.43;;;1.90;99.90;;;;;;5099646;28;20435;-69
2021/01/24 06:06:22;;;;;;;2.40;1.70;;;1.80;99.90;;;;;;5117473;28;20467;-69
2021/01/24 06:08:50;;;;;;;2.83;2.17;;;1.80;99.90;;;;;;5116045;28;20456;-69
2021/01/24 06:11:20;;;;;;;2.80;2.40;;;1.80;99.90;;;;;;5116110;28;20467;-69
2021/01/24 06:13:51;;;;;;;3.10;2.83;;;1.80;99.90;;;;;;5117376;28;20432;-70
2021/01/24 06:16:22;;;;;;;3.37;2.73;;;1.70;99.90;;;;;;5115732;28;20482;-70
2021/01/24 06:18:55;;;;;;;2.40;2.20;;;1.70;99.90;;;;;;5115749;28;20922;-71
2021/01/24 06:21:28;;;;;;;3.60;3.17;;;1.60;99.90;;;;;;5116509;28;20428;-71
2021/01/24 06:24:03;;;;;;;6.30;3.37;;;1.60;99.90;;;;;;5116445;28;20430;-70
2021/01/24 06:26:58;;;;;;;3.47;3.13;;;1.60;99.90;;;;;;5116511;28;20440;-70
2021/01/24 06:29:27;;;;;;;5.07;4.10;;;1.50;99.90;;;;;;5115409;28;20431;-70
2021/01/24 06:31:56;;;;;;;5.47;3.60;;;1.50;99.90;;;;;;5122732;28;20795;-70
2021/01/24 06:34:33;;;;;;;4.40;3.57;;;1.50;99.90;;;;;;5121401;28;20462;-70
2021/01/24 06:37:06;;;;;;;7.23;4.37;;;1.40;99.90;;;;;;5115518;28;20424;-70
2021/01/24 06:39:44;;;;;;;5.67;3.57;;;1.40;99.90;;;;;;5115052;28;20428;-71
2021/01/24 06:42:11;;;;;;;3.67;3.23;;;1.30;99.90;;;;;;5132066;27;20582;-71
2021/01/24 06:44:40;;;;;;;7.53;4.13;;;1.30;99.90;;;;;;5116496;28;20532;-71
2021/01/24 06:47:29;;;;;;;6.60;4.60;;;1.30;99.90;;;;;;5115309;28;20451;-71
2021/01/24 06:49:58;;;;;;;6.30;4.17;;;1.30;99.90;;;;;;5115885;28;20458;-71
2021/01/24 06:52:25;;;;;;;5.53;3.63;;;1.40;99.90;;;;;;5131180;27;20949;-71
2021/01/24 06:54:52;;;;;;;9.13;4.17;;;1.50;99.90;;;;;;5116345;28;20515;-74
2021/01/24 06:57:30;;;;;;;6.53;4.03;;;1.40;99.90;;;;;;5116467;28;20516;-74
2021/01/24 07:00:16;;;;;;;5.77;3.07;;;1.40;99.90;;;;;;5115847;28;20443;-74
2021/01/24 07:02:43;;;;;;;3.93;3.53;;;1.50;99.90;;;;;;5095729;28;20563;-71
2021/01/24 07:05:17;;;;;;;4.73;3.80;;;1.50;99.90;;;;;;5095686;28;20475;-71
2021/01/24 07:07:48;;;;;;;6.87;4.20;;;1.50;99.90;;;;;;5095574;28;20506;-70
2021/01/24 07:10:47;;;;;;;4.50;3.43;;;1.40;99.90;;;;;;5095752;28;20959;-70
2021/01/24 07:13:35;;;;;;;4.50;3.60;;;1.40;99.90;;;;;;5037113;28;20436;-70
2021/01/24 07:16:05;;;;;;;4.23;2.90;;;1.40;99.90;;;;;;5101952;28;20472;-70
2021/01/24 07:18:43;;;;;;;5.93;3.57;;;1.40;99.90;;;;;;5114016;28;20993;-71
2021/01/24 07:21:13;;;;;;;5.10;3.20;;;1.40;99.90;;;;;;5115608;28;20431;-71
2021/01/24 07:23:41;;;;;;;4.30;3.90;;;1.40;99.90;;;;;;5116221;28;20531;-74
2021/01/24 07:26:10;;;;;;;8.20;3.87;;;1.40;99.90;;;;;;5115840;28;20465;-71
2021/01/24 07:28:38;;;;;;;4.70;3.40;;;1.40;99.90;;;;;;5115823;28;20426;-73
2021/01/24 07:31:08;;;;;;;6.43;3.67;;;1.30;99.90;;;;;;5113471;27;20467;-71
2021/01/24 07:33:36;;;;;;;6.00;4.13;;;1.30;99.90;;;;;;5115746;28;20435;-72
2021/01/24 07:36:05;;;;;;;4.93;3.23;;;1.30;99.90;;;;;;5115468;28;20809;-71
2021/01/24 07:38:33;;;;;;;4.40;3.30;;;1.30;99.90;;;;;;5097477;28;20492;-73
2021/01/24 07:41:01;;;;;;;6.47;3.50;;;1.20;99.90;;;;;;5110270;28;20513;-73
2021/01/24 07:43:32;;;;;;;4.67;3.60;;;1.20;99.90;;;;;;5115259;28;20432;-70
2021/01/24 07:46:00;;;;;;;3.83;2.70;;;1.30;99.90;;;;;;5114219;28;20879;-70
2021/01/24 07:48:52;;;;;;;7.43;4.13;;;1.30;99.90;;;;;;5115223;28;20440;-71
2021/01/24 07:51:21;;;;;;;3.90;2.80;;;1.30;99.90;;;;;;5096640;28;20440;-70
2021/01/24 07:53:50;;;;;;;4.77;3.43;;;1.20;99.90;;;;;;5113587;28;20428;-70
2021/01/24 07:56:23;;;;;;;6.27;3.50;;;1.10;99.90;;;;;;5115000;28;20482;-70
2021/01/24 07:58:52;;;;;;;4.87;3.83;;;1.10;99.90;;;;;;5114938;28;20420;-71
2021/01/24 08:01:21;;;;;;;6.20;3.60;;;1.10;99.90;;;;;;5113830;28;20459;-70
2021/01/24 08:03:48;;;;;;;7.43;3.90;;;1.10;99.90;;;;;;5096413;28;20424;-71
2021/01/24 08:06:17;;;;;;;5.27;3.30;;;1.10;99.90;;;;;;5115385;28;20827;-70
2021/01/24 08:08:47;;;;;;;6.00;3.53;;;1.10;99.90;;;;;;5115087;28;20753;-71
2021/01/24 08:11:15;;;;;;;6.97;4.07;;;1.10;99.90;;;;;;5092713;28;20464;-70
2021/01/24 08:13:44;;;;;;;4.23;3.80;;;1.20;99.90;;;;;;5073519;28;20426;-70
2021/01/24 08:16:14;;;;;;;3.83;3.20;;;1.10;99.90;;;;;;5073112;28;20515;-72
2021/01/24 08:18:45;;;;;;;5.70;4.00;;;1.20;99.90;;;;;;5076707;28;20425;-71
2021/01/24 08:21:15;;;;;;;6.67;3.50;;;1.20;99.90;;;;;;5075872;28;20517;-71
2021/01/24 08:23:44;;;;;;;4.90;3.60;;;1.20;99.90;;;;;;5091885;28;20437;-71
2021/01/24 08:26:12;;;;;;;4.27;3.67;;;1.10;99.90;;;;;;5076886;28;20502;-71
2021/01/24 08:28:47;;;;;;;7.93;3.07;;;1.10;99.90;;;;;;5075769;28;20444;-72
2021/01/24 08:31:19;;;;;;;7.00;4.33;;;1.10;99.90;;;;;;5076074;28;20468;-71
2021/01/24 08:33:48;;;;;;;4.40;3.33;;;1.20;99.90;;;;;;5075816;28;20418;-71
2021/01/24 08:36:17;;;;;;;5.27;3.63;;;1.20;99.90;;;;;;5077110;28;20501;-71
2021/01/24 08:38:46;;;;;;;4.60;3.70;;;1.10;99.90;;;;;;5077228;28;20437;-72
2021/01/24 08:41:16;;;;;;;6.07;3.20;;;1.10;99.90;;;;;;5073815;28;20433;-72
2021/01/24 08:43:44;;;;;;;3.63;3.10;;;1.10;99.90;;;;;;5074758;28;20426;-73
2021/01/24 08:46:24;;;;;;;5.00;3.43;;;1.10;99.90;;;;;;5068634;28;20821;-72
2021/01/24 08:49:04;;;;;;;4.30;3.10;;;1.10;99.90;;;;;;5054286;28;20926;-72
2021/01/24 08:51:48;;;;;;;4.63;4.00;;;1.10;99.90;;;;;;5053674;28;20521;-72
2021/01/24 08:54:34;;;;;;;3.27;2.97;;;1.00;99.90;;;;;;5055726;28;20522;-72
2021/01/24 08:57:10;;;;;;;4.67;3.30;;;1.00;99.90;;;;;;5054042;28;20441;-73
2021/01/24 08:59:59;;;;;;;4.70;4.27;;;1.10;99.90;;;;;;5071257;28;20402;-73
2021/01/24 09:02:31;;;;;;;5.00;4.10;;;1.20;99.90;;;;;;5064665;28;20472;-74
2021/01/24 09:05:01;;;;;;;4.43;3.93;;;1.50;99.90;;;;;;5066058;28;20445;-72
2021/01/24 09:07:38;;;;;;;5.53;3.57;;;1.50;99.90;;;;;;5064418;28;20445;-72
2021/01/24 09:10:16;;;;;;;3.40;2.53;;;1.60;99.90;;;;;;5077284;28;20564;-72
2021/01/24 09:12:49;;;;;;;3.90;3.37;;;1.70;99.90;;;;;;5106058;28;20898;-73
2021/01/24 09:15:19;;;;;;;3.43;3.10;;;1.50;99.90;;;;;;5108149;28;20574;-72
2021/01/24 09:17:47;;;;;;;4.60;4.20;;;1.50;99.90;;;;;;5113071;28;20478;-73
2021/01/24 09:20:16;;;;;;;4.30;3.87;;;1.50;99.90;;;;;;5123027;28;20445;-72
2021/01/24 09:22:43;;;;;;;5.17;3.50;;;1.60;99.90;;;;;;5100650;28;20463;-72
2021/01/24 09:25:11;;;;;;;6.00;4.67;;;1.60;99.90;;;;;;5103178;28;20483;-72
2021/01/24 09:27:40;;;;;;;4.80;3.37;;;1.60;99.90;;;;;;5121660;28;20578;-71
2021/01/24 09:30:34;;;;;;;3.47;3.13;;;1.50;99.90;;;;;;5121866;28;20534;-71
2021/01/24 09:33:01;;;;;;;7.13;3.00;;;1.50;99.90;;;;;;5119997;28;20483;-72
2021/01/24 09:35:29;;;;;;;3.30;3.00;;;1.50;99.90;;;;;;5084779;28;20497;-71
2021/01/24 09:37:57;;;;;;;4.60;3.30;;;1.50;99.90;;;;;;5115560;28;20516;-71
2021/01/24 09:40:24;;;;;;;4.67;3.27;;;1.50;99.90;;;;;;5111168;28;20461;-71
2021/01/24 09:42:52;;;;;;;4.63;3.40;;;1.70;99.90;;;;;;5109638;28;20800;-71
2021/01/24 09:45:19;;;;;;;3.87;3.40;;;1.50;99.90;;;;;;5108155;28;20462;-71
2021/01/24 09:47:48;;;;;;;5.13;3.20;;;1.60;99.90;;;;;;5110051;28;20504;-71
2021/01/24 09:50:17;;;;;;;3.80;3.17;;;1.50;99.90;;;;;;5091916;28;20463;-71
2021/01/24 09:52:44;;;;;;;7.07;3.73;;;1.60;99.90;;;;;;5111595;28;20550;-72
2021/01/24 09:55:12;;;;;;;4.60;4.07;;;1.50;99.90;;;;;;5093431;28;20575;-72
2021/01/24 09:57:43;;;;;;;5.83;3.07;;;1.50;99.90;;;;;;5095535;28;20464;-71
2021/01/24 10:00:12;;;;;;;4.37;3.53;;;1.40;99.90;;;;;;5117587;28;20998;-73
2021/01/24 10:02:40;;;;;;;6.17;3.63;;;1.50;99.90;;;;;;5125727;28;20471;-71
2021/01/24 10:05:10;;;;;;;4.27;3.90;;;1.50;99.90;;;;;;5106035;28;20922;-71
2021/01/24 10:07:38;;;;;;;3.63;3.17;;;1.60;99.90;;;;;;5115158;28;20491;-72
2021/01/24 10:10:06;;;;;;;4.27;2.60;;;1.70;99.90;;;;;;5119641;28;20431;-72
2021/01/24 10:12:34;;;;;;;4.83;3.20;;;1.70;99.90;;;;;;5086049;28;20476;-74
2021/01/24 10:15:02;;;;;;;5.93;3.93;;;1.80;99.90;;;;;;5089501;28;20469;-73
2021/01/24 10:17:31;;;;;;;3.50;3.20;;;1.70;99.90;;;;;;5088718;28;20482;-72
2021/01/24 10:19:59;;;;;;;3.67;3.03;;;1.80;99.90;;;;;;5086450;28;20425;-70
2021/01/24 10:22:27;;;;;;;7.00;3.70;;;1.60;99.90;;;;;;5081432;28;20505;-72
2021/01/24 10:24:55;;;;;;;4.93;3.77;;;1.70;99.90;;;;;;5082333;28;20480;-72
2021/01/24 10:27:23;;;;;;;3.40;3.10;;;1.60;99.90;;;;;;5080272;28;20928;-74
2021/01/24 10:29:51;;;;;;;6.10;3.57;;;1.60;99.90;;;;;;5077569;28;20466;-68
2021/01/24 10:32:18;;;;;;;6.73;4.00;;;1.70;99.90;;;;;;5075616;28;20487;-72
2021/01/24 10:35:00;;;;;;;5.77;3.87;;;1.70;99.90;;;;;;5077070;28;20428;-72
2021/01/24 10:37:28;;;;;;;3.70;3.40;;;1.80;99.90;;;;;;5076255;28;20434;-71
2021/01/24 10:39:56;;;;;;;5.03;3.40;;;1.80;99.90;;;;;;5075877;28;20483;-72
2021/01/24 10:42:23;;;;;;;4.80;3.23;;;1.80;99.90;;;;;;5077456;28;20792;-71
2021/01/24 10:44:51;;;;;;;5.67;3.27;;;1.90;99.90;;;;;;5077081;28;20418;-72
2021/01/24 10:47:18;;;;;;;3.50;3.20;;;1.90;99.90;;;;;;5077366;28;20518;-72
2021/01/24 10:49:46;;;;;;;3.77;3.30;;;2.10;99.90;;;;;;5078431;28;20453;-72
2021/01/24 10:52:13;;;;;;;3.33;3.00;;;2.10;99.90;;;;;;5084833;28;20421;-73
2021/01/24 10:54:41;;;;;;;5.03;3.73;;;2.00;99.90;;;;;;5085613;28;20448;-71
2021/01/24 10:57:08;;;;;;;5.50;3.47;;;2.00;99.90;;;;;;5099544;28;20560;-72
2021/01/24 10:59:35;;;;;;;4.20;3.10;;;1.90;99.90;;;;;;5081873;28;20483;-72
2021/01/24 11:02:03;;;;;;;2.87;2.20;;;1.90;99.90;;;;;;5080530;28;20957;-71
2021/01/24 11:04:32;;;;;;;3.53;2.77;;;2.00;99.90;;;;;;5079957;28;20429;-77
2021/01/24 11:07:00;;;;;;;3.33;3.03;;;1.90;99.90;;;;;;5081648;28;20519;-71
2021/01/24 11:09:28;;;;;;;3.90;3.10;;;1.80;99.90;;;;;;5080902;28;20437;-70
2021/01/24 11:11:56;;;;;;;4.90;3.33;;;1.80;99.90;;;;;;5086645;28;20478;-71
2021/01/24 11:14:24;;;;;;;3.70;3.40;;;1.80;99.90;;;;;;5096462;28;20444;-71
2021/01/24 11:16:51;;;;;;;6.63;3.40;;;1.80;99.90;;;;;;5076252;28;20572;-72
2021/01/24 11:19:19;;;;;;;4.23;2.90;;;1.80;99.90;;;;;;5096299;28;20842;-74
2021/01/24 11:21:47;;;;;;;5.50;3.33;;;1.70;99.90;;;;;;5096480;28;20448;-71
2021/01/24 11:24:40;;;;;;;3.90;3.43;;;1.70;99.90;;;;;;5097139;28;20421;-70
2021/01/24 11:27:08;;;;;;;4.77;3.53;;;1.70;99.90;;;;;;5097046;28;20432;-72
2021/01/24 11:29:38;;;;;;;5.77;4.13;;;1.60;99.90;;;;;;5097012;28;20440;-70
2021/01/24 11:32:08;;;;;;;4.73;4.10;;;1.60;99.90;;;;;;5093210;28;20480;-73
2021/01/24 11:34:37;;;;;;;5.70;4.17;;;1.60;99.90;;;;;;5094680;28;20431;-70
2021/01/24 11:37:04;;;;;;;3.90;3.50;;;1.50;99.90;;;;;;5094976;28;20855;-70
2021/01/24 11:39:32;;;;;;;4.67;3.67;;;1.40;99.90;;;;;;5094727;28;20468;-71
2021/01/24 11:41:59;;;;;;;3.90;3.50;;;1.40;99.90;;;;;;5093569;28;20432;-69
2021/01/24 11:44:27;;;;;;;6.03;4.37;;;1.40;99.90;;;;;;5093958;28;20450;-68
2021/01/24 11:46:55;;;;;;;4.27;3.77;;;1.30;99.90;;;;;;5109203;28;20476;-69
2021/01/24 11:49:22;;;;;;;4.80;4.40;;;1.40;99.90;;;;;;5101214;28;20460;-69
2021/01/24 11:51:50;;;;;;;4.57;3.00;;;1.20;99.90;;;;;;5095885;28;20440;-73
2021/01/24 11:54:18;;;;;;;4.60;3.13;;;1.10;99.90;;;;;;5077369;28;20513;-71
2021/01/24 11:56:46;;;;;;;7.80;4.40;;;1.00;99.90;;;;;;5095644;28;20472;-73
2021/01/24 11:59:39;;;;;;;4.50;3.90;;;1.00;99.90;;;;;;5095917;28;20431;-69
2021/01/24 12:02:07;;;;;;;5.67;4.57;;;1.10;99.90;;;;;;5090467;28;20504;-69
2021/01/24 12:04:34;;;;;;;7.17;4.33;;;1.20;99.90;;;;;;5110844;28;20433;-69
2021/01/24 12:07:02;;;;;;;6.13;4.27;;;1.00;99.90;;;;;;5094534;28;20444;-70
2021/01/24 12:09:30;;;;;;;5.37;4.27;;;1.00;99.90;;;;;;5094798;28;20430;-68
2021/01/24 12:11:57;;;;;;;5.40;4.20;;;1.00;99.90;;;;;;5094511;28;20978;-67
2021/01/24 12:14:25;;;;;;;5.40;4.10;;;1.00;99.90;;;;;;5077037;28;20445;-68
2021/01/24 12:16:53;;;;;;;5.90;3.70;;;1.10;99.90;;;;;;5094284;28;20979;-69
2021/01/24 12:19:20;;;;;;;10.23;3.87;;;0.90;99.90;;;;;;5094696;28;20417;-68
2021/01/24 12:21:48;;;;;;;5.37;4.20;;;0.90;99.90;;;;;;5094907;28;20425;-68
2021/01/24 12:27:08;;;;;;;6.20;3.80;;;0.90;99.90;;;;;;5095043;28;20436;-68
2021/01/24 12:29:35;;;;;;;5.13;3.70;;;0.90;99.90;;;;;;5095454;28;20820;-68
2021/01/24 12:32:04;;;;;;;5.00;3.87;;;0.90;99.90;;;;;;5093828;28;20484;-69
2021/01/24 12:34:32;;;;;;;5.20;3.70;;;0.90;99.90;;;;;;5094542;28;20464;-68
2021/01/24 12:36:59;;;;;;;5.40;4.17;;;0.90;99.90;;;;;;5095417;28;20463;-72
2021/01/24 12:39:26;;;;;;;5.07;3.80;;;0.70;99.90;;;;;;5094735;28;20915;-69
2021/01/24 12:41:53;;;;;;;6.40;3.60;;;0.70;99.90;;;;;;5093422;28;20437;-68
2021/01/24 12:44:21;;;;;;;5.23;3.97;;;0.70;99.90;;;;;;5095014;28;20485;-68
2021/01/24 12:46:48;;;;;;;4.20;3.80;;;0.80;99.90;;;;;;5094224;28;20464;-69
2021/01/24 12:49:17;;;;;;;7.27;4.57;;;0.80;99.90;;;;;;5096091;28;20431;-69
2021/01/24 12:51:44;;;;;;;4.87;3.87;;;0.90;99.90;;;;;;5099402;28;20429;-71
2021/01/24 12:54:11;;;;;;;7.10;4.23;;;1.00;99.90;;;;;;5098973;28;20460;-69
2021/01/24 12:56:39;;;;;;;5.00;3.50;;;0.90;99.90;;;;;;5097277;28;20947;-70
2021/01/24 12:59:07;;;;;;;5.40;4.20;;;0.90;99.90;;;;;;5080737;28;20421;-71
2021/01/24 13:01:34;;;;;;;7.27;4.60;;;0.90;99.90;;;;;;5098325;28;20470;-71
2021/01/24 13:04:02;;;;;;;6.80;4.93;;;0.90;99.90;;;;;;5098867;28;20491;-68
2021/01/24 13:06:35;;;;;;;5.20;4.13;;;1.00;99.90;;;;;;5099006;28;20873;-70
2021/01/24 13:09:03;;;;;;;5.47;4.87;;;1.00;99.90;;;;;;5100434;28;20444;-68
2021/01/24 13:11:31;;;;;;;5.50;3.97;;;1.00;99.90;;;;;;5105978;28;20473;-69